Time;durP1;ratioP1;P1;durP2;ratioP2;P2;SDS_P1;SDS_P2;PMS_P1;PMS_P2;Temp;Humidity;BMP_temperature;BMP_pressure;BME280_temperature;BME280_humidity;BME280_pressure;Samples;Min_cycle;Max_cycle;Signal;HPM_P1;HPM_P2
2022/06/23 00:00:03;;;;;;;6.45;2.75;;;;;;;19.25;56.44;99442.72;5060878;28;20047;-56
2022/06/23 00:02:47;;;;;;;5.88;2.25;;;;;;;19.24;56.36;99444.50;5060232;28;20062;-56
2022/06/23 00:05:39;;;;;;;5.80;2.63;;;;;;;19.24;56.38;99427.88;5034955;28;20070;-56
2022/06/23 00:08:23;;;;;;;5.00;2.75;;;;;;;19.24;56.35;99430.50;5034872;28;20130;-56
2022/06/23 00:11:19;;;;;;;5.25;2.53;;;;;;;19.24;56.49;99426.13;5035097;28;20162;-56
2022/06/23 00:14:15;;;;;;;6.63;2.42;;;;;;;19.22;56.52;99432.34;5035467;28;20483;-55
2022/06/23 00:17:34;;;;;;;5.82;3.05;;;;;;;19.22;56.86;99429.72;5035643;28;20044;-56
2022/06/23 00:20:59;;;;;;;4.15;2.50;;;;;;;19.22;56.85;99442.84;5034300;28;20071;-56
2022/06/23 00:23:49;;;;;;;3.90;2.33;;;;;;;19.20;56.61;99427.13;5034326;28;20049;-56
2022/06/23 00:26:35;;;;;;;4.13;2.40;;;;;;;19.19;56.93;99425.38;5034489;28;20060;-55
2022/06/23 00:29:23;;;;;;;4.90;2.80;;;;;;;19.20;56.71;99427.13;5034056;28;20519;-55
2022/06/23 00:32:10;;;;;;;6.60;3.25;;;;;;;19.19;56.87;99424.53;5034399;28;20090;-55
2022/06/23 00:35:00;;;;;;;4.85;2.85;;;;;;;19.19;56.99;99419.28;5034404;28;20136;-57
2022/06/23 00:37:47;;;;;;;4.45;2.40;;;;;;;19.17;56.77;99414.06;5034386;28;20040;-57
2022/06/23 00:40:31;;;;;;;4.15;2.65;;;;;;;19.19;57.07;99424.53;5033713;28;20107;-57
2022/06/23 00:43:17;;;;;;;4.13;2.53;;;;;;;19.19;56.93;99432.44;5035086;28;20048;-56
2022/06/23 00:46:18;;;;;;;7.45;3.25;;;;;;;19.16;56.92;99423.72;5034901;28;20061;-57
2022/06/23 00:49:14;;;;;;;7.50;2.97;;;;;;;19.15;56.88;99423.78;5033399;28;20534;-55
2022/06/23 00:52:30;;;;;;;7.00;2.70;;;;;;;19.16;56.76;99422.84;5034058;28;20119;-57
2022/06/23 00:55:39;;;;;;;4.78;2.78;;;;;;;19.15;56.88;99427.25;5035249;28;20064;-56
2022/06/23 00:58:48;;;;;;;6.50;2.60;;;;;;;19.15;56.98;99429.88;5033483;28;20523;-56
2022/06/23 01:01:43;;;;;;;5.70;2.50;;;;;;;19.15;56.92;99432.50;5034361;28;20051;-56
2022/06/23 01:04:37;;;;;;;5.32;2.90;;;;;;;19.14;56.79;99432.56;5060426;28;20055;-56
2022/06/23 01:07:35;;;;;;;3.88;2.40;;;;;;;19.15;56.95;99432.50;5053800;28;20048;-57
2022/06/23 01:10:32;;;;;;;3.67;2.47;;;;;;;19.15;56.97;99445.63;5053512;28;20603;-55
2022/06/23 01:13:33;;;;;;;4.78;3.03;;;;;;;19.15;56.93;99439.53;5053424;28;20404;-55
2022/06/23 01:16:26;;;;;;;5.00;3.00;;;;;;;19.16;56.85;99444.75;5053337;28;20052;-55
2022/06/23 01:19:13;;;;;;;5.60;2.58;;;;;;;19.15;56.81;99448.25;5053241;28;20071;-55
2022/06/23 01:22:02;;;;;;;8.90;3.00;;;;;;;19.16;57.04;99450.00;5053478;28;20523;-55
2022/06/23 01:24:57;;;;;;;6.68;2.78;;;;;;;19.17;57.02;99451.72;5053609;28;20056;-56
2022/06/23 01:27:57;;;;;;;4.57;2.70;;;;;;;19.16;56.94;99450.00;5053352;28;20056;-56
2022/06/23 01:31:24;;;;;;;8.15;3.30;;;;;;;19.16;57.22;99450.00;5052709;28;20102;-57
2022/06/23 01:34:28;;;;;;;5.20;3.20;;;;;;;19.17;57.08;99448.22;5053450;28;20067;-56
2022/06/23 01:37:30;;;;;;;7.85;2.90;;;;;;;19.16;56.98;99444.75;5053162;28;20462;-57
2022/06/23 01:40:34;;;;;;;6.45;3.35;;;;;;;19.15;56.96;99435.13;5052828;28;20064;-57
2022/06/23 01:43:35;;;;;;;10.68;3.85;;;;;;;19.16;57.21;99434.22;5052824;28;20056;-55
2022/06/23 01:46:24;;;;;;;5.43;2.80;;;;;;;19.17;57.30;99443.84;5052969;28;20051;-57
2022/06/23 01:49:26;;;;;;;9.65;3.10;;;;;;;19.16;57.36;99443.84;5053725;28;20094;-56
2022/06/23 01:52:12;;;;;;;5.35;2.65;;;;;;;19.16;57.26;99438.59;5053571;28;20162;-56
2022/06/23 01:55:04;;;;;;;5.40;2.92;;;;;;;19.17;57.39;99437.69;5052643;28;20520;-56
2022/06/23 01:57:54;;;;;;;5.47;3.05;;;;;;;19.16;57.31;99439.47;5052069;28;20048;-55
2022/06/23 02:00:45;;;;;;;5.43;2.95;;;;;;;19.16;57.41;99431.59;5052997;28;20055;-56
2022/06/23 02:03:41;;;;;;;6.72;2.80;;;;;;;19.17;57.38;99429.81;5057510;28;20055;-55
2022/06/23 02:06:32;;;;;;;4.43;3.15;;;;;;;19.16;57.29;99420.22;5073562;28;20416;-56
2022/06/23 02:09:23;;;;;;;6.13;3.03;;;;;;;19.14;57.36;99424.69;5072053;28;20071;-57
2022/06/23 02:12:22;;;;;;;4.43;2.95;;;;;;;19.15;57.53;99422.00;5072076;28;20522;-55
2022/06/23 02:15:15;;;;;;;6.10;3.00;;;;;;;19.15;57.59;99426.41;5073365;28;20048;-56
2022/06/23 02:18:16;;;;;;;6.97;2.92;;;;;;;19.15;57.63;99437.75;5058243;28;20140;-57
2022/06/23 02:21:14;;;;;;;8.13;2.75;;;;;;;19.13;57.74;99431.69;5058408;28;20079;-56
2022/06/23 02:24:05;;;;;;;4.80;2.80;;;;;;;19.14;57.84;99429.94;5073359;28;20064;-55
2022/06/23 02:27:24;;;;;;;6.95;2.90;;;;;;;19.13;57.54;99422.97;5073270;28;20106;-56
2022/06/23 02:30:17;;;;;;;5.68;2.72;;;;;;;19.12;57.65;99424.72;5073445;28;20063;-57
2022/06/23 02:33:19;;;;;;;7.20;3.42;;;;;;;19.11;57.83;99420.38;5057822;28;20136;-56
2022/06/23 02:36:06;;;;;;;6.13;2.97;;;;;;;19.12;57.78;99427.34;5073109;28;20518;-57
2022/06/23 02:38:57;;;;;;;5.20;2.88;;;;;;;19.13;57.85;99422.97;5073153;28;20431;-56
2022/06/23 02:41:52;;;;;;;7.90;2.83;;;;;;;19.12;57.78;99422.09;5073123;28;20079;-57
2022/06/23 02:44:48;;;;;;;5.70;3.42;;;;;;;19.12;57.84;99426.50;5057471;28;20526;-56
2022/06/23 02:48:06;;;;;;;11.05;3.22;;;;;;;19.12;57.83;99421.25;5072865;28;20079;-57
2022/06/23 02:51:21;;;;;;;4.90;2.92;;;;;;;19.11;57.74;99424.78;5073189;28;20042;-57
2022/06/23 02:54:17;;;;;;;;;;;;;;;19.10;57.75;99428.31;5058365;28;20051;-55
2022/06/23 02:57:01;;;;;;;3.72;2.60;;;;;;;19.10;57.92;99428.31;5072957;28;19954;-55
2022/06/23 02:59:59;;;;;;;28.10;3.92;;;;;;;19.10;58.15;99426.53;5072977;28;20086;-56
2022/06/23 03:02:55;;;;;;;5.53;3.38;;;;;;;19.11;58.10;99424.78;5057630;28;20420;-56
2022/06/23 03:05:51;;;;;;;6.22;3.42;;;;;;;19.10;57.94;99421.25;5072844;28;20102;-55
2022/06/23 03:09:23;;;;;;;5.95;3.50;;;;;;;19.11;57.99;99419.53;5072020;28;20462;-56
2022/06/23 03:12:22;;;;;;;6.53;3.10;;;;;;;19.11;58.30;99423.00;5030860;28;20518;-56
2022/06/23 03:15:25;;;;;;;5.45;3.33;;;;;;;19.11;58.11;99407.22;5072809;28;20518;-57
2022/06/23 03:18:25;;;;;;;4.63;3.05;;;;;;;19.12;58.35;99408.97;5057694;28;20052;-55
2022/06/23 03:21:20;;;;;;;6.70;3.17;;;;;;;19.13;58.33;99400.16;5074417;28;20106;-56
2022/06/23 03:24:11;;;;;;;7.38;3.03;;;;;;;19.13;58.28;99397.53;5061574;28;20087;-57
2022/06/23 03:27:39;;;;;;;8.52;3.00;;;;;;;19.13;58.36;99397.53;5061295;28;20055;-56
2022/06/23 03:30:33;;;;;;;5.57;2.78;;;;;;;19.12;58.36;99395.81;4994771;28;20053;-55
2022/06/23 03:33:27;;;;;;;5.47;3.17;;;;;;;19.13;58.47;99407.22;4980877;28;20045;-55
2022/06/23 03:36:28;;;;;;;9.60;3.00;;;;;;;19.13;58.46;99404.56;5058988;28;20051;-56
2022/06/23 03:42:30;;;;;;;6.13;2.70;;;;;;;19.12;58.54;99398.44;5075588;28;20470;-57
2022/06/23 03:45:30;;;;;;;3.83;3.03;;;;;;;19.12;58.54;99411.59;5075829;28;20055;-57
2022/06/23 03:48:33;;;;;;;8.63;3.90;;;;;;;19.13;58.62;99417.72;5061028;28;20052;-56
2022/06/23 03:51:23;;;;;;;4.82;3.15;;;;;;;19.11;58.40;99415.09;5061019;28;20048;-56
2022/06/23 03:54:16;;;;;;;7.22;3.83;;;;;;;19.12;58.77;99405.47;5075347;28;20170;-56
2022/06/23 03:57:13;;;;;;;6.97;4.00;;;;;;;19.13;58.92;99396.69;5075564;28;20051;-57
2022/06/23 04:00:06;;;;;;;7.30;3.63;;;;;;;19.13;58.81;99401.94;5075900;28;20094;-57
2022/06/23 04:03:29;;;;;;;5.85;3.65;;;;;;;19.12;58.82;99401.06;5074616;28;20078;-56
2022/06/23 04:06:15;;;;;;;4.53;3.75;;;;;;;19.13;59.30;99396.69;5073234;28;20047;-56
2022/06/23 04:09:26;;;;;;;5.80;3.60;;;;;;;19.14;58.98;99393.16;5075056;28;20523;-56
2022/06/23 04:12:15;;;;;;;8.90;3.88;;;;;;;19.14;59.15;99396.66;5060469;28;20112;-57
2022/06/23 04:15:25;;;;;;;4.25;3.50;;;;;;;19.15;59.30;99400.16;5060589;28;20098;-56
2022/06/23 04:18:17;;;;;;;4.97;3.85;;;;;;;19.14;59.15;99399.28;5060276;28;20058;-57
2022/06/23 04:21:08;;;;;;;4.82;3.70;;;;;;;19.15;59.22;99397.53;5060222;28;20418;-56
2022/06/23 04:23:57;;;;;;;7.00;4.00;;;;;;;19.15;59.15;99402.78;5060433;28;20093;-56
2022/06/23 04:26:43;;;;;;;6.60;3.50;;;;;;;19.15;59.22;99406.25;5060394;28;20044;-56
2022/06/23 04:29:39;;;;;;;6.13;4.20;;;;;;;19.15;59.12;99408.88;5060381;28;20130;-56
2022/06/23 04:32:33;;;;;;;6.80;4.32;;;;;;;19.16;59.12;99428.09;5075376;28;20091;-57
2022/06/23 04:35:27;;;;;;;5.40;4.03;;;;;;;19.16;59.37;99422.84;5060025;28;20124;-56
2022/06/23 04:38:11;;;;;;;8.75;4.13;;;;;;;19.17;59.43;99416.69;5074605;28;20523;-56
2022/06/23 04:41:12;;;;;;;6.80;4.30;;;;;;;19.19;59.31;99427.16;5075125;28;20098;-57
2022/06/23 04:44:06;;;;;;;5.05;3.60;;;;;;;19.19;59.41;99421.91;5074876;28;20083;-56
2022/06/23 04:47:02;;;;;;;11.88;5.30;;;;;;;19.19;59.66;99435.91;5059522;28;20079;-56
2022/06/23 04:49:53;;;;;;;6.10;4.25;;;;;;;19.20;59.78;99428.91;5059877;28;20132;-55
2022/06/23 04:52:49;;;;;;;5.50;4.15;;;;;;;19.20;59.58;99442.88;5059686;28;20165;-55
2022/06/23 04:55:35;;;;;;;7.15;4.55;;;;;;;19.22;60.12;99441.06;5059826;28;20079;-55
2022/06/23 04:58:22;;;;;;;9.85;5.07;;;;;;;19.23;60.04;99432.28;5059770;28;20530;-55
2022/06/23 05:01:14;;;;;;;6.20;4.47;;;;;;;19.24;60.17;99433.13;5059264;28;20051;-55
2022/06/23 05:03:59;;;;;;;7.00;5.00;;;;;;;19.25;59.87;99429.59;5053350;28;20056;-57
2022/06/23 05:06:46;;;;;;;7.80;5.38;;;;;;;19.25;60.05;99432.22;5053660;28;20111;-56
2022/06/23 05:09:41;;;;;;;8.35;4.88;;;;;;;19.26;60.21;99433.94;5053155;28;20052;-56
2022/06/23 05:12:54;;;;;;;7.72;4.63;;;;;;;19.26;60.43;99426.94;5054130;28;20048;-55
2022/06/23 05:15:59;;;;;;;9.25;4.65;;;;;;;19.26;60.13;99440.06;5053146;28;20094;-56
2022/06/23 05:18:47;;;;;;;7.25;5.32;;;;;;;19.27;60.42;99438.28;5053556;28;20067;-57
2022/06/23 05:21:56;;;;;;;8.30;5.03;;;;;;;19.27;60.15;99435.66;5053067;28;20124;-56
2022/06/23 05:24:44;;;;;;;5.72;4.43;;;;;;;19.27;60.30;99452.31;5053336;28;20056;-57
2022/06/23 05:27:33;;;;;;;10.52;5.32;;;;;;;19.27;60.22;99448.81;5053925;28;20122;-56
2022/06/23 05:30:20;;;;;;;7.00;4.97;;;;;;;19.27;60.40;99448.81;5053415;28;20113;-56
2022/06/23 05:33:12;;;;;;;5.75;4.85;;;;;;;19.27;60.44;99441.81;5053610;28;20562;-57
2022/06/23 05:36:28;;;;;;;7.43;5.63;;;;;;;19.26;60.41;99429.56;5054207;28;20043;-57
2022/06/23 05:39:34;;;;;;;11.18;5.38;;;;;;;19.26;60.42;99434.81;5053650;28;20075;-57
2022/06/23 05:42:25;;;;;;;6.28;4.60;;;;;;;19.26;60.72;99437.44;5053330;28;20047;-56
2022/06/23 05:45:16;;;;;;;9.80;5.43;;;;;;;19.26;61.00;99442.69;5052846;28;20059;-56
2022/06/23 05:48:07;;;;;;;11.05;4.88;;;;;;;19.30;61.08;99440.84;5053920;28;20051;-57
2022/06/23 05:50:57;;;;;;;10.55;5.18;;;;;;;19.31;60.92;99437.31;5053019;28;20048;-56
2022/06/23 05:54:06;;;;;;;11.95;5.90;;;;;;;19.31;60.95;99442.56;5052786;28;20044;-57
2022/06/23 05:57:00;;;;;;;11.95;6.68;;;;;;;19.32;61.17;99445.13;5052930;28;20136;-57
2022/06/23 05:59:47;;;;;;;12.82;6.57;;;;;;;19.33;61.28;99444.22;5052513;28;20063;-57
2022/06/23 06:02:40;;;;;;;10.63;7.55;;;;;;;19.37;61.17;99441.50;5052597;28;20098;-57
2022/06/23 06:05:31;;;;;;;13.05;7.00;;;;;;;19.37;61.56;99447.66;5052890;28;20539;-57
2022/06/23 06:08:30;;;;;;;14.02;7.03;;;;;;;19.37;61.49;99450.28;5052807;28;20110;-56
2022/06/23 06:11:15;;;;;;;10.25;6.30;;;;;;;19.40;61.49;99452.78;5053337;28;20044;-57
2022/06/23 06:14:01;;;;;;;14.30;7.90;;;;;;;19.41;61.79;99446.63;5053404;28;20509;-57
2022/06/23 06:16:46;;;;;;;10.30;6.72;;;;;;;19.40;62.25;99439.66;5052747;28;20190;-56
2022/06/23 06:19:32;;;;;;;9.63;6.50;;;;;;;19.44;61.81;99445.69;5052382;28;20412;-57
2022/06/23 06:22:42;;;;;;;9.45;6.40;;;;;;;19.44;62.10;99453.56;5052104;28;20097;-55
2022/06/23 06:25:30;;;;;;;10.80;6.88;;;;;;;19.45;62.18;99445.63;5052766;28;20586;-56
2022/06/23 06:28:16;;;;;;;9.40;6.45;;;;;;;19.47;62.10;99443.81;5052184;28;20044;-57
2022/06/23 06:31:18;;;;;;;15.52;8.55;;;;;;;19.49;62.42;99438.50;5052019;28;20125;-56
2022/06/23 06:34:31;;;;;;;16.10;7.97;;;;;;;19.51;62.07;99449.84;5052881;28;20118;-57
2022/06/23 06:37:15;;;;;;;13.75;7.57;;;;;;;19.52;62.42;99453.34;5052460;28;20047;-56
2022/06/23 06:40:03;;;;;;;12.73;8.18;;;;;;;19.53;62.29;99450.66;5052359;28;20100;-57
2022/06/23 06:43:02;;;;;;;15.43;7.97;;;;;;;19.54;62.18;99455.00;5052092;28;20095;-57
2022/06/23 06:45:47;;;;;;;11.77;6.93;;;;;;;19.55;62.02;99450.59;5052335;28;20403;-56
2022/06/23 06:48:38;;;;;;;14.07;7.90;;;;;;;19.56;62.53;99452.31;5053784;28;20427;-55
2022/06/23 06:51:26;;;;;;;11.02;7.28;;;;;;;19.57;62.55;99451.41;5052038;28;20068;-56
2022/06/23 06:54:16;;;;;;;13.23;7.53;;;;;;;19.56;62.60;99449.69;5052991;28;20106;-55
2022/06/23 06:57:05;;;;;;;12.98;6.75;;;;;;;19.58;62.62;99453.13;5055638;28;20047;-56
2022/06/23 07:00:05;;;;;;;14.27;7.65;;;;;;;19.59;62.90;99462.75;5055936;28;20114;-56
2022/06/23 07:02:57;;;;;;;12.20;7.68;;;;;;;19.58;62.99;99448.75;5056106;28;20071;-57
2022/06/23 07:06:00;;;;;;;13.70;7.18;;;;;;;19.60;62.74;99449.56;5056116;28;20159;-57
2022/06/23 07:08:52;;;;;;;13.10;6.90;;;;;;;19.60;62.82;99460.09;5055629;28;20048;-56
2022/06/23 07:11:48;;;;;;;12.38;7.47;;;;;;;19.60;62.86;99459.22;5057322;28;20048;-57
2022/06/23 07:14:54;;;;;;;12.55;7.57;;;;;;;19.62;63.14;99457.41;5055542;28;20047;-57
2022/06/23 07:17:46;;;;;;;13.02;7.57;;;;;;;19.63;63.01;99456.50;5055314;28;20148;-58
2022/06/23 07:20:44;;;;;;;13.25;7.38;;;;;;;19.63;63.11;99459.13;5055447;28;20134;-56
2022/06/23 07:23:51;;;;;;;10.85;7.18;;;;;;;19.65;63.05;99453.81;5055349;28;20075;-57
2022/06/23 07:26:42;;;;;;;12.15;7.22;;;;;;;19.65;62.85;99457.31;5069674;28;20047;-57
2022/06/23 07:29:52;;;;;;;15.88;7.43;;;;;;;19.66;63.27;99460.78;5069801;28;20095;-57
2022/06/23 07:32:57;;;;;;;11.20;7.53;;;;;;;19.66;63.10;99464.28;5055994;28;20060;-57
2022/06/23 07:36:11;;;;;;;18.40;7.47;;;;;;;19.68;63.29;99451.97;5055224;28;20048;-55
2022/06/23 07:39:06;;;;;;;13.68;7.07;;;;;;;19.69;63.45;99453.69;5055124;28;20102;-55
2022/06/23 07:42:04;;;;;;;12.82;7.38;;;;;;;19.70;63.64;99460.63;5055268;28;20063;-56
2022/06/23 07:45:08;;;;;;;19.42;7.45;;;;;;;19.72;63.61;99464.09;5055722;28;20138;-55
2022/06/23 07:47:52;;;;;;;18.58;7.05;;;;;;;19.74;63.66;99470.16;5055298;28;20044;-55
2022/06/23 07:50:35;;;;;;;14.10;7.18;;;;;;;19.77;64.04;99466.59;5055985;28;20706;-56
2022/06/23 07:53:24;;;;;;;13.98;6.63;;;;;;;19.76;64.00;99473.59;5056542;28;20064;-56
2022/06/23 07:56:13;;;;;;;11.40;6.65;;;;;;;19.80;63.72;99473.53;5055661;28;20090;-57
2022/06/23 07:59:09;;;;;;;14.50;6.55;;;;;;;19.80;63.89;99479.63;5054532;28;20051;-57
2022/06/23 08:01:59;;;;;;;12.13;7.07;;;;;;;19.81;64.20;99480.50;5054726;28;20064;-56
2022/06/23 08:04:55;;;;;;;16.38;6.63;;;;;;;19.84;64.05;99476.00;5054660;28;20056;-56
2022/06/23 08:07:39;;;;;;;13.85;7.13;;;;;;;19.87;63.97;99482.94;5054062;28;20091;-57
2022/06/23 08:10:27;;;;;;;12.52;7.15;;;;;;;19.88;64.26;99482.03;5055635;28;20044;-56
2022/06/23 08:13:18;;;;;;;12.80;6.88;;;;;;;19.90;64.22;99480.22;5054687;28;20052;-57
2022/06/23 08:19:19;;;;;;;10.80;7.15;;;;;;;19.92;64.21;99483.69;5055058;28;20052;-57
2022/06/23 08:22:11;;;;;;;16.98;6.57;;;;;;;19.93;64.43;99491.50;5054390;28;20074;-56
2022/06/23 08:24:58;;;;;;;12.18;7.13;;;;;;;19.96;64.57;99492.31;5054382;28;20132;-56
2022/06/23 08:27:44;;;;;;;14.25;6.60;;;;;;;19.97;64.56;99483.53;5054161;28;20120;-57
2022/06/23 08:30:28;;;;;;;10.18;6.43;;;;;;;19.98;64.64;99477.34;5054419;28;20110;-57
2022/06/23 08:33:13;;;;;;;10.65;7.05;;;;;;;19.99;64.63;99479.09;5054783;28;20076;-57
2022/06/23 08:35:58;;;;;;;13.80;7.40;;;;;;;20.01;64.81;99483.38;5054970;28;20182;-55
2022/06/23 08:38:49;;;;;;;14.38;6.47;;;;;;;20.01;64.93;99479.91;5054166;28;20044;-55
2022/06/23 08:41:52;;;;;;;11.05;6.72;;;;;;;20.03;64.49;99476.28;5054524;28;20499;-57
2022/06/23 08:44:45;;;;;;;14.32;7.13;;;;;;;20.05;64.63;99479.75;5054882;28;20051;-57
2022/06/23 08:47:58;;;;;;;13.82;6.38;;;;;;;20.08;64.86;99473.53;5054107;28;20099;-57
2022/06/23 08:51:07;;;;;;;12.35;6.45;;;;;;;20.08;64.60;99484.91;5053713;28;20068;-57
2022/06/23 08:54:01;;;;;;;16.23;7.03;;;;;;;20.08;64.91;99486.69;5053236;28;20079;-55
2022/06/23 08:56:53;;;;;;;17.90;7.95;;;;;;;20.11;64.79;99491.00;5054393;28;20051;-56
2022/06/23 08:59:46;;;;;;;14.30;6.88;;;;;;;20.13;65.02;99491.81;5053545;28;20051;-57
2022/06/23 09:02:40;;;;;;;13.25;7.03;;;;;;;20.15;65.01;99488.19;5054520;28;20420;-56
2022/06/23 09:05:36;;;;;;;12.35;6.75;;;;;;;20.16;64.89;99482.03;5052944;28;20519;-56
2022/06/23 09:08:29;;;;;;;10.52;6.07;;;;;;;20.17;64.81;99485.50;5054139;28;20047;-56
2022/06/23 09:11:23;;;;;;;14.30;6.97;;;;;;;20.16;64.99;99475.94;5053564;28;20052;-57
2022/06/23 09:14:38;;;;;;;16.88;7.07;;;;;;;20.20;64.97;99477.53;5053375;28;20048;-55
2022/06/23 09:17:41;;;;;;;14.00;6.85;;;;;;;20.21;65.00;99472.22;5053866;28;20124;-56
2022/06/23 09:20:44;;;;;;;12.13;6.30;;;;;;;20.23;64.96;99472.16;5053999;28;20095;-55
2022/06/23 09:23:34;;;;;;;10.63;5.88;;;;;;;20.23;64.87;99466.91;5053748;28;20068;-56
2022/06/23 09:26:34;;;;;;;12.27;6.35;;;;;;;20.26;65.07;99468.56;5053287;28;20128;-55
2022/06/23 09:29:36;;;;;;;10.30;6.60;;;;;;;20.27;65.10;99460.63;5053339;28;20503;-57
2022/06/23 09:32:34;;;;;;;12.40;6.40;;;;;;;20.29;65.29;99460.56;5053660;28;20043;-56
2022/06/23 09:35:44;;;;;;;13.88;7.13;;;;;;;20.29;65.04;99458.81;5052849;28;20412;-56
2022/06/23 09:38:47;;;;;;;17.48;6.82;;;;;;;20.32;65.15;99457.84;5052832;28;20055;-55
2022/06/23 09:41:39;;;;;;;10.82;6.63;;;;;;;20.32;65.09;99456.06;5053048;28;20052;-57
2022/06/23 09:44:42;;;;;;;22.10;6.60;;;;;;;20.35;65.02;99444.59;5053929;28;20059;-56
2022/06/23 09:47:59;;;;;;;10.35;6.13;;;;;;;20.36;65.31;99436.63;5052472;28;20047;-57
2022/06/23 09:51:19;;;;;;;13.23;6.45;;;;;;;20.39;65.30;99435.69;5052693;28;20052;-57
2022/06/23 09:54:29;;;;;;;19.20;6.85;;;;;;;20.41;65.47;99435.63;5052794;28;20043;-55
2022/06/23 09:57:47;;;;;;;13.82;6.75;;;;;;;20.42;65.19;99435.56;5052789;28;20075;-56
2022/06/23 10:00:31;;;;;;;14.27;6.32;;;;;;;20.44;65.51;99435.53;5053100;28;20467;-59
2022/06/23 10:03:21;;;;;;;11.00;6.78;;;;;;;20.44;65.46;99433.75;5053681;28;20194;-60
2022/06/23 10:06:30;;;;;;;12.73;6.72;;;;;;;20.47;65.54;99435.44;5072640;28;20552;-57
2022/06/23 10:09:32;;;;;;;12.57;6.40;;;;;;;20.48;65.59;99435.38;5058370;28;20052;-55
2022/06/23 10:12:32;;;;;;;14.20;5.82;;;;;;;20.48;65.38;99422.19;5073375;28;20051;-57
2022/06/23 10:15:23;;;;;;;10.02;5.82;;;;;;;20.50;65.58;99427.41;5072145;28;20044;-58
2022/06/23 10:18:25;;;;;;;13.27;6.43;;;;;;;20.53;65.43;99437.81;5072728;28;20055;-57
2022/06/23 10:21:19;;;;;;;10.80;5.97;;;;;;;20.54;65.75;99444.81;5073396;28;20044;-57
2022/06/23 10:24:31;;;;;;;14.88;6.30;;;;;;;20.55;65.68;99436.00;5058560;28;20463;-57
2022/06/23 10:27:44;;;;;;;13.65;5.78;;;;;;;20.56;65.66;99440.34;5073456;28;20185;-56
2022/06/23 10:30:47;;;;;;;11.93;5.72;;;;;;;20.57;65.67;99433.31;5075209;28;20044;-55
2022/06/23 10:33:44;;;;;;;10.10;5.47;;;;;;;20.59;65.79;99435.00;5077415;28;20395;-56
2022/06/23 10:37:02;;;;;;;11.00;5.82;;;;;;;20.60;65.64;99418.28;5077143;28;20044;-56
2022/06/23 10:39:57;;;;;;;11.07;5.43;;;;;;;20.61;65.98;99411.22;5076773;28;20420;-57
2022/06/23 10:43:02;;;;;;;10.38;5.93;;;;;;;20.63;65.96;99409.41;5062395;28;20051;-57
2022/06/23 10:45:50;;;;;;;;;;;;;;;20.62;65.65;99408.56;5063059;28;20434;-57
2022/06/23 10:48:50;;;;;;;13.30;6.35;;;;;;;20.62;65.77;99412.97;5077911;28;19966;-57
2022/06/23 10:51:46;;;;;;;9.23;5.03;;;;;;;20.62;65.81;99413.84;5076537;28;20552;-55
2022/06/23 10:54:52;;;;;;;9.32;4.60;;;;;;;20.64;65.76;99405.88;5076068;28;20041;-56
2022/06/23 10:57:58;;;;;;;12.60;5.63;;;;;;;20.64;65.93;99404.06;5076838;28;20059;-55
2022/06/23 11:01:16;;;;;;;9.70;5.28;;;;;;;20.65;65.93;99413.69;5076737;28;20048;-56
2022/06/23 11:04:13;;;;;;;9.73;5.15;;;;;;;20.67;66.05;99403.13;5076431;28;20056;-56
2022/06/23 11:07:26;;;;;;;10.45;4.93;;;;;;;20.67;65.90;99396.06;5075713;28;20051;-56
2022/06/23 11:10:24;;;;;;;10.68;5.22;;;;;;;20.69;66.03;99407.41;5061870;28;20048;-55
2022/06/23 11:13:43;;;;;;;14.57;4.68;;;;;;;20.73;66.06;99402.91;5061641;28;20063;-55
2022/06/23 11:16:59;;;;;;;13.63;4.97;;;;;;;20.74;65.83;99398.50;5076547;28;20059;-55
2022/06/23 11:19:47;;;;;;;10.25;5.32;;;;;;;20.73;65.97;99400.25;5061326;28;20094;-56
2022/06/23 11:22:35;;;;;;;6.57;4.05;;;;;;;20.72;65.90;99398.53;5075971;28;20404;-56
2022/06/23 11:25:40;;;;;;;7.75;4.63;;;;;;;20.73;65.75;99391.50;5076456;28;20399;-56
2022/06/23 11:28:39;;;;;;;10.73;4.80;;;;;;;20.72;66.00;99385.38;5060966;28;20522;-58
2022/06/23 11:31:45;;;;;;;6.68;4.95;;;;;;;20.74;65.83;99387.97;5076408;28;20156;-56
2022/06/23 11:34:39;;;;;;;9.73;5.28;;;;;;;20.74;66.00;99380.91;5075316;28;20099;-56
2022/06/23 11:37:41;;;;;;;11.57;5.35;;;;;;;20.75;65.75;99387.94;5075137;28;20047;-56
2022/06/23 11:40:54;;;;;;;12.55;4.80;;;;;;;20.76;66.04;99380.91;5076038;28;20059;-55
2022/06/23 11:44:20;;;;;;;14.07;5.30;;;;;;;20.78;65.97;99376.44;5076302;28;20055;-57
2022/06/23 11:47:25;;;;;;;11.35;5.05;;;;;;;20.80;65.89;99382.50;5047446;28;20050;-55
2022/06/23 11:50:18;;;;;;;12.05;4.72;;;;;;;20.80;65.81;99372.84;5061976;28;20442;-55
2022/06/23 11:53:30;;;;;;;13.25;5.63;;;;;;;20.82;66.06;99376.28;5074843;28;20109;-55
2022/06/23 11:56:32;;;;;;;12.43;4.63;;;;;;;20.84;66.07;99360.41;5075837;28;20469;-55
2022/06/23 11:59:22;;;;;;;10.02;5.05;;;;;;;20.86;65.83;99368.28;5060906;28;20105;-56
2022/06/23 12:02:06;;;;;;;7.75;4.03;;;;;;;20.87;65.82;99360.31;5076226;28;20055;-56
2022/06/23 12:05:06;;;;;;;7.60;4.07;;;;;;;20.89;65.97;99363.75;5075818;28;20079;-56
2022/06/23 12:08:04;;;;;;;8.00;4.25;;;;;;;20.91;65.83;99364.53;5075871;28;20132;-56
2022/06/23 12:10:51;;;;;;;14.70;5.03;;;;;;;20.92;65.94;99360.13;5074763;28;20479;-57
2022/06/23 12:13:37;;;;;;;15.20;4.85;;;;;;;20.94;65.92;99355.66;5075758;28;20125;-57
2022/06/23 12:16:23;;;;;;;10.00;4.47;;;;;;;20.95;65.81;99347.69;5060196;28;20179;-56
2022/06/23 12:19:14;;;;;;;8.32;3.85;;;;;;;20.96;66.15;99359.09;5075223;28;20415;-55
2022/06/23 12:22:17;;;;;;;10.55;5.15;;;;;;;20.98;65.96;99349.38;5060085;28;20079;-56
2022/06/23 12:25:01;;;;;;;8.52;4.32;;;;;;;20.98;66.13;99355.47;5059908;28;20568;-56
2022/06/23 12:27:54;;;;;;;11.93;4.70;;;;;;;21.01;66.16;99358.91;5060577;28;20070;-55
2022/06/23 12:30:47;;;;;;;10.45;5.38;;;;;;;21.01;66.13;99351.88;5059717;28;20124;-55
2022/06/23 12:33:52;;;;;;;12.15;4.72;;;;;;;21.02;66.05;99347.47;5060148;28;20399;-56
2022/06/23 12:37:03;;;;;;;7.90;4.03;;;;;;;21.01;66.02;99341.34;5070135;28;20051;-55
2022/06/23 12:40:17;;;;;;;12.25;4.80;;;;;;;21.01;66.02;99338.72;5073808;28;20094;-56
2022/06/23 12:43:26;;;;;;;9.18;4.70;;;;;;;21.01;65.91;99340.47;5074746;28;20066;-57
2022/06/23 12:46:33;;;;;;;11.52;4.75;;;;;;;21.02;65.98;99335.13;5073844;28;20514;-56
2022/06/23 12:49:44;;;;;;;8.05;4.43;;;;;;;21.03;65.96;99328.09;5039728;28;20048;-57
2022/06/23 12:52:41;;;;;;;8.65;4.30;;;;;;;21.05;65.99;99331.56;5074255;28;20454;-57
2022/06/23 12:56:05;;;;;;;10.95;4.65;;;;;;;21.04;66.08;99330.69;5059829;28;20060;-57
2022/06/23 12:59:06;;;;;;;7.68;4.78;;;;;;;21.07;66.07;99329.72;5074191;28;20617;-57
2022/06/23 13:02:15;;;;;;;8.70;5.07;;;;;;;21.07;66.20;99325.28;5058987;28;20079;-56
2022/06/23 13:05:17;;;;;;;13.10;5.35;;;;;;;21.10;66.09;99316.41;5074715;28;20059;-56
2022/06/23 13:08:22;;;;;;;9.32;4.22;;;;;;;21.12;66.04;99320.72;5073421;28;20117;-56
2022/06/23 13:11:19;;;;;;;;;;;;;;;21.14;66.04;99321.50;5074980;28;20047;-56
2022/06/23 13:14:13;;;;;;;16.90;5.43;;;;;;;21.13;66.00;99319.78;5074119;28;19969;-56
2022/06/23 13:17:10;;;;;;;14.35;4.32;;;;;;;21.16;66.17;99310.06;5059002;28;20091;-56
2022/06/23 13:20:16;;;;;;;9.93;4.07;;;;;;;21.18;65.97;99308.22;5059207;28;20523;-56
2022/06/23 13:23:09;;;;;;;10.45;4.50;;;;;;;21.17;66.06;99310.00;5058810;28;20399;-55
2022/06/23 13:25:57;;;;;;;12.15;5.10;;;;;;;21.19;66.05;99302.00;5073696;28;20139;-56
2022/06/23 13:28:44;;;;;;;15.93;4.53;;;;;;;21.20;66.21;99299.34;5059361;28;20126;-56
2022/06/23 13:32:08;;;;;;;11.00;5.45;;;;;;;21.21;66.00;99306.31;5058562;28;20095;-56
2022/06/23 13:35:16;;;;;;;14.57;5.47;;;;;;;21.22;66.07;99296.63;5035340;28;20044;-55
2022/06/23 13:38:40;;;;;;;12.30;5.60;;;;;;;21.20;65.82;99296.69;5072842;28;20093;-57
2022/06/23 13:41:38;;;;;;;7.07;3.90;;;;;;;21.21;65.83;99301.06;5012938;28;20094;-57
2022/06/23 13:44:37;;;;;;;11.48;3.92;;;;;;;21.23;65.97;99296.59;5073845;28;20051;-57
2022/06/23 13:47:31;;;;;;;14.40;4.90;;;;;;;21.24;65.84;99300.94;5073694;28;20143;-56
2022/06/23 13:50:40;;;;;;;12.32;4.97;;;;;;;21.24;65.85;99289.53;5059075;28;20545;-56
2022/06/23 13:53:39;;;;;;;9.68;4.70;;;;;;;21.25;66.00;99285.97;5073665;28;20043;-57
2022/06/23 13:56:29;;;;;;;10.65;4.32;;;;;;;21.26;65.98;99279.78;5058755;28;20102;-57